KAL212 ENGM-ENVA
Flight info
| Callsign | KAL212 |
|---|---|
| Flight time | N/A |
| Altitude | 24000 |
| Route | RIBBE DCT GIGNI DCT VEVOD |
| Aircraft | B77W/H-SDE1E2E3FGHIJ2J3J4J5M1RWXY/LB1D1 |
Departure
| Time | 2026-04-30 21:49 |
|---|---|
| Airport | Oslo-Gardermoen International Airport (ENGM) |
Arrival
| Time | N/A |
|---|---|
| Airport | Trondheim Airport, Værnes (ENVA) |
| Time | Latitude | Longitude | Altitude | Speed | Heading |
|---|---|---|---|---|---|
| 2026-04-30 21:15 | 60.19242 | 11.11008 | 696 ft | 0 kts | 16° |
| 2026-04-30 21:32 | 60.19240 | 11.11007 | 696 ft | 2 kts | 15° |
| 2026-04-30 21:32 | 60.19215 | 11.10998 | 692 ft | 4 kts | 9° |
| 2026-04-30 21:32 | 60.19196 | 11.10979 | 687 ft | 4 kts | 54° |
| 2026-04-30 21:33 | 60.19189 | 11.10936 | 687 ft | 4 kts | 109° |
| 2026-04-30 21:33 | 60.19199 | 11.10883 | 687 ft | 0 kts | 106° |
| 2026-04-30 21:42 | 60.19199 | 11.10885 | 696 ft | 2 kts | 106° |
| 2026-04-30 21:42 | 60.19191 | 11.10939 | 692 ft | 1 kts | 106° |
| 2026-04-30 21:42 | 60.19176 | 11.11048 | 688 ft | 1 kts | 106° |
| 2026-04-30 21:43 | 60.19171 | 11.11091 | 691 ft | 0 kts | 95° |
| 2026-04-30 21:43 | 60.19178 | 11.11122 | 687 ft | 7 kts | 52° |
| 2026-04-30 21:43 | 60.19233 | 11.11175 | 691 ft | 10 kts | 14° |
| 2026-04-30 21:43 | 60.19303 | 11.11212 | 690 ft | 11 kts | 16° |
| 2026-04-30 21:44 | 60.19382 | 11.11260 | 691 ft | 12 kts | 16° |
| 2026-04-30 21:44 | 60.19469 | 11.11313 | 691 ft | 14 kts | 15° |
| 2026-04-30 21:44 | 60.19565 | 11.11365 | 688 ft | 15 kts | 16° |
| 2026-04-30 21:44 | 60.19670 | 11.11428 | 689 ft | 16 kts | 15° |
| 2026-04-30 21:45 | 60.19784 | 11.11491 | 690 ft | 17 kts | 16° |
| 2026-04-30 21:45 | 60.19879 | 11.11547 | 691 ft | 14 kts | 14° |
| 2026-04-30 21:45 | 60.19976 | 11.11601 | 692 ft | 15 kts | 16° |
| 2026-04-30 21:45 | 60.20048 | 11.11645 | 688 ft | 0 kts | 20° |
| 2026-04-30 21:46 | 60.20049 | 11.11645 | 688 ft | 1 kts | 20° |
| 2026-04-30 21:46 | 60.20063 | 11.11662 | 687 ft | 6 kts | 34° |
| 2026-04-30 21:46 | 60.20082 | 11.11749 | 688 ft | 8 kts | 90° |
| 2026-04-30 21:46 | 60.20068 | 11.11882 | 686 ft | 13 kts | 105° |
| 2026-04-30 21:47 | 60.20046 | 11.12037 | 691 ft | 10 kts | 107° |
| 2026-04-30 21:47 | 60.20014 | 11.12148 | 691 ft | 10 kts | 145° |
| 2026-04-30 21:47 | 60.19947 | 11.12150 | 693 ft | 9 kts | 195° |
| 2026-04-30 21:47 | 60.19932 | 11.12142 | 696 ft | 0 kts | 195° |
| 2026-04-30 21:48 | 60.19931 | 11.12141 | 696 ft | 1 kts | 195° |
| 2026-04-30 21:48 | 60.19831 | 11.12082 | 690 ft | 33 kts | 197° |
| 2026-04-30 21:49 | 60.19378 | 11.11821 | 689 ft | 106 kts | 196° |
| 2026-04-30 21:49 | 60.18448 | 11.11291 | 703 ft | 168 kts | 196° |
| 2026-04-30 21:49 | 60.17272 | 11.10613 | 1169 ft | 176 kts | 196° |
| 2026-04-30 21:49 | 60.16097 | 11.09968 | 1864 ft | 178 kts | 198° |
| 2026-04-30 21:50 | 60.14885 | 11.09311 | 2390 ft | 183 kts | 199° |
| 2026-04-30 21:50 | 60.14056 | 11.08969 | 2663 ft | 188 kts | 185° |